createdAt,value
2019-04-07T13:22:53.140Z,9.35
2019-04-07T13:26:03.821Z,9.25
2019-04-07T13:29:11.849Z,10.70
2019-04-07T13:32:20.654Z,9.78
2019-04-07T13:35:32.010Z,11.97
2019-04-07T13:38:37.154Z,12.53
2019-04-07T13:41:45.859Z,10.23
2019-04-07T13:45:04.497Z,9.83
2019-04-07T13:48:25.936Z,9.10
2019-04-07T13:51:36.709Z,8.85
2019-04-07T13:54:42.278Z,8.10
2019-04-07T13:57:48.270Z,8.38
2019-04-07T14:00:56.314Z,8.93
2019-04-07T14:04:05.606Z,8.25
2019-04-07T14:07:11.639Z,9.45
2019-04-07T14:10:17.115Z,8.43
2019-04-07T14:13:40.675Z,10.55
2019-04-07T14:16:48.687Z,14.03
2019-04-07T14:20:10.356Z,10.98
2019-04-07T14:23:18.657Z,12.50
2019-04-07T14:26:23.623Z,10.25
2019-04-07T14:29:29.569Z,10.58
2019-04-07T14:32:41.592Z,10.40
2019-04-07T14:35:47.703Z,10.05
2019-04-07T14:38:53.190Z,10.35
2019-04-07T14:42:04.762Z,9.85
2019-04-07T14:45:05.615Z,9.90
2019-04-07T14:48:11.368Z,9.33
2019-04-07T14:51:17.527Z,9.38
2019-04-07T14:54:27.023Z,9.63
2019-04-07T14:57:41.512Z,8.78
2019-04-07T15:00:57.199Z,9.65
2019-04-07T15:04:02.229Z,9.40
2019-04-07T15:07:09.172Z,9.00
2019-04-07T15:10:16.863Z,8.88
2019-04-07T15:13:23.938Z,8.53
2019-04-07T15:16:27.385Z,8.75
2019-04-07T15:19:31.099Z,8.70
2019-04-07T15:22:34.608Z,9.08
2019-04-07T15:25:42.804Z,9.18
2019-04-07T15:28:44.632Z,9.53
2019-04-07T15:31:50.787Z,8.20
2019-04-07T15:34:54.590Z,8.73
2019-04-07T15:37:59.080Z,9.50
2019-04-07T15:41:07.716Z,9.45
2019-04-07T15:44:10.058Z,9.25
2019-04-07T15:47:13.177Z,9.48
2019-04-07T15:50:16.792Z,10.55
2019-04-07T15:53:20.933Z,10.50
2019-04-07T15:56:24.570Z,9.10
2019-04-07T15:59:29.748Z,9.73
2019-04-07T16:02:34.539Z,10.38
2019-04-07T16:05:42.424Z,10.03
2019-04-07T16:08:43.169Z,10.43
2019-04-07T16:11:49.232Z,10.58
2019-04-07T16:14:51.757Z,10.75
2019-04-07T16:17:55.568Z,11.70
2019-04-07T16:21:00.691Z,11.08
2019-04-07T16:24:06.190Z,12.07
2019-04-07T16:27:10.883Z,11.38
2019-04-07T16:30:16.425Z,11.70
2019-04-07T16:33:20.522Z,11.63
2019-04-07T16:36:25.543Z,11.57
2019-04-07T16:39:34.121Z,11.05
2019-04-07T16:42:36.111Z,11.88
2019-04-07T16:45:44.167Z,11.48
2019-04-07T16:48:46.400Z,12.00
2019-04-07T16:51:49.837Z,11.80
2019-04-07T16:54:53.447Z,10.68
2019-04-07T16:57:59.423Z,11.00
2019-04-07T17:01:02.046Z,10.30
2019-04-07T17:04:06.318Z,12.28
2019-04-07T17:07:14.181Z,12.75
2019-04-07T17:10:15.134Z,13.93
2019-04-07T17:13:28.038Z,13.95
2019-04-07T17:16:25.028Z,26.87
2019-04-07T17:19:28.553Z,32.42
2019-04-07T17:22:32.597Z,50.50
2019-04-07T17:25:36.306Z,55.35
2019-04-07T17:28:44.600Z,66.65
2019-04-07T17:31:45.620Z,63.65
2019-04-07T17:34:50.820Z,54.27
2019-04-07T17:37:59.808Z,48.13
2019-04-07T17:41:01.334Z,46.85
2019-04-07T17:44:13.220Z,43.52
2019-04-07T17:47:15.849Z,45.52
2019-04-07T17:50:23.429Z,41.80
2019-04-07T17:53:38.381Z,44.83
2019-04-07T17:56:43.496Z,46.15
2019-04-07T17:59:49.392Z,44.03
2019-04-07T18:03:05.283Z,46.02
2019-04-07T18:06:19.563Z,50.40
2019-04-07T18:09:44.966Z,44.03
2019-04-07T18:12:54.087Z,42.13
2019-04-07T18:15:59.881Z,42.15
2019-04-07T18:19:05.596Z,41.45
2019-04-07T18:22:27.475Z,39.48
2019-04-07T18:25:50.553Z,40.05
2019-04-07T18:28:59.620Z,44.98
2019-04-07T18:32:16.539Z,44.48
2019-04-07T18:35:43.252Z,43.13
2019-04-07T18:38:54.948Z,43.02
2019-04-07T18:42:02.053Z,44.63
2019-04-07T18:45:25.508Z,49.53
2019-04-07T18:48:34.731Z,54.40
2019-04-07T18:51:48.356Z,53.00
2019-04-07T18:58:53.449Z,82.33
2019-04-07T19:04:01.280Z,66.70
2019-04-07T19:09:28.311Z,65.70
2019-04-07T19:14:44.625Z,75.60
2019-04-07T19:19:49.391Z,68.65
2019-04-07T19:24:58.157Z,73.35
2019-04-07T19:30:19.426Z,75.22
2019-04-07T19:35:40.681Z,84.22
2019-04-07T19:40:53.214Z,82.35
2019-04-07T19:46:04.802Z,128.95
2019-04-07T19:51:17.731Z,117.67
2019-04-07T19:56:40.075Z,102.67
2019-04-07T20:01:46.174Z,99.83
2019-04-07T20:06:59.543Z,102.02
2019-04-07T20:12:16.258Z,96.65
2019-04-07T20:17:34.439Z,95.92
2019-04-07T20:22:40.033Z,105.80
2019-04-07T20:28:02.288Z,101.95
2019-04-07T20:33:11.780Z,105.52
2019-04-07T20:38:35.847Z,96.22
2019-04-07T20:43:39.381Z,108.83
2019-04-07T20:48:43.498Z,104.80
2019-04-07T20:55:42.844Z,108.57
2019-04-07T20:59:53.080Z,101.22
2019-04-07T21:03:55.654Z,111.50
2019-04-07T21:08:00.728Z,100.97
2019-04-07T21:12:14.863Z,104.92
2019-04-07T21:16:23.496Z,100.82
2019-04-07T21:24:58.687Z,107.37
2019-04-07T21:29:02.407Z,111.70
2019-04-07T21:33:08.963Z,97.60
2019-04-07T21:37:14.791Z,99.47
2019-04-07T21:41:17.391Z,95.28
2019-04-07T21:45:35.378Z,116.12
2019-04-07T21:49:37.199Z,113.60
2019-04-07T21:53:43.163Z,119.95
2019-04-07T21:57:59.795Z,119.13
2019-04-07T22:02:13.369Z,105.58
2019-04-07T22:06:26.547Z,111.45
2019-04-07T22:10:27.566Z,120.30
2019-04-07T22:14:28.888Z,102.70
2019-04-07T22:18:30.369Z,108.10
2019-04-07T22:22:33.220Z,93.07
2019-04-07T22:26:35.310Z,113.90
2019-04-07T22:30:39.919Z,94.22
2019-04-07T22:34:39.970Z,88.85
2019-04-07T22:38:41.239Z,87.88
2019-04-07T22:42:45.490Z,93.55
2019-04-07T22:46:48.042Z,95.53
2019-04-07T22:50:49.606Z,92.00
2019-04-07T22:54:51.918Z,94.37
2019-04-07T22:58:54.112Z,97.37
2019-04-07T23:02:56.007Z,89.95
2019-04-07T23:06:57.280Z,80.83
2019-04-07T23:10:58.739Z,78.22
2019-04-07T23:14:59.990Z,87.42
2019-04-07T23:19:02.627Z,84.13
2019-04-07T23:23:04.728Z,92.78
2019-04-07T23:27:06.248Z,95.42
2019-04-07T23:31:07.574Z,81.78
2019-04-07T23:35:09.157Z,82.53
2019-04-07T23:39:11.115Z,98.90
2019-04-07T23:43:13.191Z,103.20
2019-04-07T23:47:15.271Z,117.37
2019-04-07T23:51:17.156Z,94.65
2019-04-07T23:55:18.414Z,90.55
2019-04-07T23:59:20.760Z,89.10
